sensor_id;sensor_type;location;lat;lon;timestamp;temperature;humidity
54431;DHT22;40342;52.998;5.862;2023-07-13T00:01:15;16.60;99.90
54431;DHT22;40342;52.998;5.862;2023-07-13T00:03:41;16.60;99.90
54431;DHT22;40342;52.998;5.862;2023-07-13T00:06:07;16.60;99.90
54431;DHT22;40342;52.998;5.862;2023-07-13T00:08:34;16.50;99.90
54431;DHT22;40342;52.998;5.862;2023-07-13T00:11:01;16.50;99.90
54431;DHT22;40342;52.998;5.862;2023-07-13T00:13:28;16.50;99.90
54431;DHT22;40342;52.998;5.862;2023-07-13T00:15:55;16.50;99.90
54431;DHT22;40342;52.998;5.862;2023-07-13T00:18:21;16.50;99.90
54431;DHT22;40342;52.998;5.862;2023-07-13T00:20:47;16.50;99.90
54431;DHT22;40342;52.998;5.862;2023-07-13T00:23:13;16.50;99.90
54431;DHT22;40342;52.998;5.862;2023-07-13T00:25:39;16.40;99.90
54431;DHT22;40342;52.998;5.862;2023-07-13T00:28:05;16.40;99.90
54431;DHT22;40342;52.998;5.862;2023-07-13T00:30:31;16.40;99.90
54431;DHT22;40342;52.998;5.862;2023-07-13T00:32:57;16.40;99.90
54431;DHT22;40342;52.998;5.862;2023-07-13T00:35:22;16.40;99.90
54431;DHT22;40342;52.998;5.862;2023-07-13T00:37:48;16.30;99.90
54431;DHT22;40342;52.998;5.862;2023-07-13T00:40:16;16.30;99.90
54431;DHT22;40342;52.998;5.862;2023-07-13T00:42:42;16.30;99.90
54431;DHT22;40342;52.998;5.862;2023-07-13T00:47:54;16.40;99.90
54431;DHT22;40342;52.998;5.862;2023-07-13T00:50:22;16.40;99.90
54431;DHT22;40342;52.998;5.862;2023-07-13T00:52:53;16.40;99.90
54431;DHT22;40342;52.998;5.862;2023-07-13T00:55:21;16.40;99.90
54431;DHT22;40342;52.998;5.862;2023-07-13T00:57:47;16.40;99.90
54431;DHT22;40342;52.998;5.862;2023-07-13T01:00:13;16.30;99.90
54431;DHT22;40342;52.998;5.862;2023-07-13T01:02:42;16.30;99.90
54431;DHT22;40342;52.998;5.862;2023-07-13T01:05:12;16.30;99.90
54431;DHT22;40342;52.998;5.862;2023-07-13T01:07:40;16.30;99.90
54431;DHT22;40342;52.998;5.862;2023-07-13T01:10:07;16.30;99.90
54431;DHT22;40342;52.998;5.862;2023-07-13T01:12:33;16.30;99.90
54431;DHT22;40342;52.998;5.862;2023-07-13T01:14:59;16.30;99.90
54431;DHT22;40342;52.998;5.862;2023-07-13T01:17:27;16.20;99.90
54431;DHT22;40342;52.998;5.862;2023-07-13T01:19:53;16.20;99.90
54431;DHT22;40342;52.998;5.862;2023-07-13T01:22:19;16.20;99.90
54431;DHT22;40342;52.998;5.862;2023-07-13T01:24:51;16.10;99.90
54431;DHT22;40342;52.998;5.862;2023-07-13T01:27:21;16.10;99.90
54431;DHT22;40342;52.998;5.862;2023-07-13T01:29:48;16.10;99.90
54431;DHT22;40342;52.998;5.862;2023-07-13T01:32:23;16.00;99.90
54431;DHT22;40342;52.998;5.862;2023-07-13T01:34:53;16.00;99.90
54431;DHT22;40342;52.998;5.862;2023-07-13T01:37:20;15.90;99.90
54431;DHT22;40342;52.998;5.862;2023-07-13T01:39:46;15.90;99.90
54431;DHT22;40342;52.998;5.862;2023-07-13T01:42:13;15.80;99.90
54431;DHT22;40342;52.998;5.862;2023-07-13T01:44:38;15.80;99.90
54431;DHT22;40342;52.998;5.862;2023-07-13T01:47:04;15.80;99.90
54431;DHT22;40342;52.998;5.862;2023-07-13T01:49:30;15.70;99.90
54431;DHT22;40342;52.998;5.862;2023-07-13T01:51:56;15.80;99.90
54431;DHT22;40342;52.998;5.862;2023-07-13T01:54:21;15.70;99.90
54431;DHT22;40342;52.998;5.862;2023-07-13T01:56:47;15.70;99.90
54431;DHT22;40342;52.998;5.862;2023-07-13T01:59:13;15.70;99.90
54431;DHT22;40342;52.998;5.862;2023-07-13T02:01:39;15.70;99.90
54431;DHT22;40342;52.998;5.862;2023-07-13T02:04:05;15.70;99.90
54431;DHT22;40342;52.998;5.862;2023-07-13T02:06:30;15.70;99.90
54431;DHT22;40342;52.998;5.862;2023-07-13T02:08:57;15.70;99.90
54431;DHT22;40342;52.998;5.862;2023-07-13T02:11:22;15.70;99.90
54431;DHT22;40342;52.998;5.862;2023-07-13T02:13:48;15.70;99.90
54431;DHT22;40342;52.998;5.862;2023-07-13T02:16:14;15.70;99.90
54431;DHT22;40342;52.998;5.862;2023-07-13T02:18:39;15.70;99.90
54431;DHT22;40342;52.998;5.862;2023-07-13T02:21:05;15.70;99.90
54431;DHT22;40342;52.998;5.862;2023-07-13T02:23:31;15.70;99.90
54431;DHT22;40342;52.998;5.862;2023-07-13T02:25:58;15.60;99.90
54431;DHT22;40342;52.998;5.862;2023-07-13T02:28:24;15.70;99.90
54431;DHT22;40342;52.998;5.862;2023-07-13T02:30:50;15.70;99.90
54431;DHT22;40342;52.998;5.862;2023-07-13T02:33:16;15.60;99.90
54431;DHT22;40342;52.998;5.862;2023-07-13T02:35:41;15.60;99.90
54431;DHT22;40342;52.998;5.862;2023-07-13T02:38:07;15.60;99.90
54431;DHT22;40342;52.998;5.862;2023-07-13T02:40:34;15.60;99.90
54431;DHT22;40342;52.998;5.862;2023-07-13T02:43:01;15.60;99.90
54431;DHT22;40342;52.998;5.862;2023-07-13T02:45:27;15.60;99.90
54431;DHT22;40342;52.998;5.862;2023-07-13T02:47:54;15.60;99.90
54431;DHT22;40342;52.998;5.862;2023-07-13T02:50:20;15.60;99.90
54431;DHT22;40342;52.998;5.862;2023-07-13T02:52:45;15.60;99.90
54431;DHT22;40342;52.998;5.862;2023-07-13T02:55:11;15.70;99.90
54431;DHT22;40342;52.998;5.862;2023-07-13T02:57:37;15.70;99.90
54431;DHT22;40342;52.998;5.862;2023-07-13T03:00:04;15.70;99.90
54431;DHT22;40342;52.998;5.862;2023-07-13T03:02:33;15.70;99.90
54431;DHT22;40342;52.998;5.862;2023-07-13T03:04:59;15.80;99.90
54431;DHT22;40342;52.998;5.862;2023-07-13T03:07:25;15.80;99.90
54431;DHT22;40342;52.998;5.862;2023-07-13T03:09:56;15.90;99.90
54431;DHT22;40342;52.998;5.862;2023-07-13T03:12:23;15.90;99.90
54431;DHT22;40342;52.998;5.862;2023-07-13T03:14:48;15.90;99.90
54431;DHT22;40342;52.998;5.862;2023-07-13T03:17:14;15.80;99.90
54431;DHT22;40342;52.998;5.862;2023-07-13T03:19:40;15.90;99.90
54431;DHT22;40342;52.998;5.862;2023-07-13T03:22:06;15.90;99.90
54431;DHT22;40342;52.998;5.862;2023-07-13T03:24:33;15.90;99.90
54431;DHT22;40342;52.998;5.862;2023-07-13T03:27:01;15.80;99.90
54431;DHT22;40342;52.998;5.862;2023-07-13T03:29:27;15.80;99.90
54431;DHT22;40342;52.998;5.862;2023-07-13T03:31:53;15.80;99.90
54431;DHT22;40342;52.998;5.862;2023-07-13T03:34:18;15.80;99.90
54431;DHT22;40342;52.998;5.862;2023-07-13T03:36:44;15.80;99.90
54431;DHT22;40342;52.998;5.862;2023-07-13T03:39:10;15.80;99.90
54431;DHT22;40342;52.998;5.862;2023-07-13T03:41:36;15.70;99.90
54431;DHT22;40342;52.998;5.862;2023-07-13T03:44:01;15.70;99.90
54431;DHT22;40342;52.998;5.862;2023-07-13T03:46:28;15.70;99.90
54431;DHT22;40342;52.998;5.862;2023-07-13T03:48:53;15.70;99.90
54431;DHT22;40342;52.998;5.862;2023-07-13T03:51:19;15.70;99.90
54431;DHT22;40342;52.998;5.862;2023-07-13T03:53:46;15.60;99.90
54431;DHT22;40342;52.998;5.862;2023-07-13T03:56:13;15.60;99.90
54431;DHT22;40342;52.998;5.862;2023-07-13T03:58:41;15.60;99.90
54431;DHT22;40342;52.998;5.862;2023-07-13T04:01:09;15.60;99.90
54431;DHT22;40342;52.998;5.862;2023-07-13T04:03:36;15.60;99.90
54431;DHT22;40342;52.998;5.862;2023-07-13T04:06:04;15.60;99.90
54431;DHT22;40342;52.998;5.862;2023-07-13T04:08:32;15.60;99.90
54431;DHT22;40342;52.998;5.862;2023-07-13T04:10:58;15.60;99.90
54431;DHT22;40342;52.998;5.862;2023-07-13T04:13:25;15.50;99.90
54431;DHT22;40342;52.998;5.862;2023-07-13T04:15:51;15.60;99.90
54431;DHT22;40342;52.998;5.862;2023-07-13T04:18:17;15.60;99.90
54431;DHT22;40342;52.998;5.862;2023-07-13T04:20:45;15.60;99.90
54431;DHT22;40342;52.998;5.862;2023-07-13T04:23:11;15.60;99.90
54431;DHT22;40342;52.998;5.862;2023-07-13T04:25:37;15.70;99.90
54431;DHT22;40342;52.998;5.862;2023-07-13T04:28:04;15.70;99.90
54431;DHT22;40342;52.998;5.862;2023-07-13T04:30:30;15.70;99.90
54431;DHT22;40342;52.998;5.862;2023-07-13T04:32:55;15.70;99.90
54431;DHT22;40342;52.998;5.862;2023-07-13T04:35:21;15.70;99.90
54431;DHT22;40342;52.998;5.862;2023-07-13T04:37:50;15.70;99.90
54431;DHT22;40342;52.998;5.862;2023-07-13T04:40:19;15.80;99.90
54431;DHT22;40342;52.998;5.862;2023-07-13T04:42:46;15.80;99.90
54431;DHT22;40342;52.998;5.862;2023-07-13T04:45:13;15.80;99.90
54431;DHT22;40342;52.998;5.862;2023-07-13T04:47:39;15.80;99.90
54431;DHT22;40342;52.998;5.862;2023-07-13T04:50:05;15.90;99.90
54431;DHT22;40342;52.998;5.862;2023-07-13T04:52:31;15.90;99.90
54431;DHT22;40342;52.998;5.862;2023-07-13T04:54:58;16.00;99.90
54431;DHT22;40342;52.998;5.862;2023-07-13T04:57:25;16.00;99.90
54431;DHT22;40342;52.998;5.862;2023-07-13T04:59:50;16.00;99.90
54431;DHT22;40342;52.998;5.862;2023-07-13T05:02:16;16.10;99.90
54431;DHT22;40342;52.998;5.862;2023-07-13T05:04:42;16.10;99.90
54431;DHT22;40342;52.998;5.862;2023-07-13T05:07:07;16.10;99.90
54431;DHT22;40342;52.998;5.862;2023-07-13T05:09:33;16.10;99.90
54431;DHT22;40342;52.998;5.862;2023-07-13T05:11:58;16.20;99.90
54431;DHT22;40342;52.998;5.862;2023-07-13T05:14:24;16.20;99.90
54431;DHT22;40342;52.998;5.862;2023-07-13T05:16:50;16.20;99.90
54431;DHT22;40342;52.998;5.862;2023-07-13T05:19:15;16.30;99.90
54431;DHT22;40342;52.998;5.862;2023-07-13T05:21:41;16.40;99.90
54431;DHT22;40342;52.998;5.862;2023-07-13T05:24:07;16.40;99.90
54431;DHT22;40342;52.998;5.862;2023-07-13T05:26:32;16.50;99.90
54431;DHT22;40342;52.998;5.862;2023-07-13T05:28:58;16.50;99.90
54431;DHT22;40342;52.998;5.862;2023-07-13T05:31:23;16.50;99.90
54431;DHT22;40342;52.998;5.862;2023-07-13T05:33:49;16.60;99.90
54431;DHT22;40342;52.998;5.862;2023-07-13T05:36:15;16.50;99.90
54431;DHT22;40342;52.998;5.862;2023-07-13T05:38:40;16.70;99.90
54431;DHT22;40342;52.998;5.862;2023-07-13T05:41:06;16.70;99.90
54431;DHT22;40342;52.998;5.862;2023-07-13T05:43:32;16.80;99.90
54431;DHT22;40342;52.998;5.862;2023-07-13T05:45:58;16.80;99.90
54431;DHT22;40342;52.998;5.862;2023-07-13T05:48:24;16.90;99.90
54431;DHT22;40342;52.998;5.862;2023-07-13T05:50:49;16.90;99.90
54431;DHT22;40342;52.998;5.862;2023-07-13T05:53:15;16.90;99.90
54431;DHT22;40342;52.998;5.862;2023-07-13T05:55:46;17.00;99.90
54431;DHT22;40342;52.998;5.862;2023-07-13T05:58:19;17.00;99.90
54431;DHT22;40342;52.998;5.862;2023-07-13T06:00:45;17.10;99.90
54431;DHT22;40342;52.998;5.862;2023-07-13T06:03:11;17.10;99.90
54431;DHT22;40342;52.998;5.862;2023-07-13T06:05:37;17.20;99.90
54431;DHT22;40342;52.998;5.862;2023-07-13T06:08:04;17.30;99.90
54431;DHT22;40342;52.998;5.862;2023-07-13T06:10:33;17.30;99.90
54431;DHT22;40342;52.998;5.862;2023-07-13T06:12:58;17.40;99.90
54431;DHT22;40342;52.998;5.862;2023-07-13T06:15:24;17.40;99.90
54431;DHT22;40342;52.998;5.862;2023-07-13T06:17:50;17.50;99.90
54431;DHT22;40342;52.998;5.862;2023-07-13T06:20:15;17.60;99.90
54431;DHT22;40342;52.998;5.862;2023-07-13T06:22:41;17.70;99.90
54431;DHT22;40342;52.998;5.862;2023-07-13T06:25:07;17.70;99.90
54431;DHT22;40342;52.998;5.862;2023-07-13T06:27:33;17.70;99.90
54431;DHT22;40342;52.998;5.862;2023-07-13T06:29:58;17.80;99.90
54431;DHT22;40342;52.998;5.862;2023-07-13T06:32:24;17.90;99.90
54431;DHT22;40342;52.998;5.862;2023-07-13T06:34:49;17.90;99.90
54431;DHT22;40342;52.998;5.862;2023-07-13T06:37:17;18.00;99.90
54431;DHT22;40342;52.998;5.862;2023-07-13T06:39:43;18.00;99.90
54431;DHT22;40342;52.998;5.862;2023-07-13T06:42:09;18.00;99.90
54431;DHT22;40342;52.998;5.862;2023-07-13T06:44:34;18.00;99.90
54431;DHT22;40342;52.998;5.862;2023-07-13T06:47:00;18.00;99.90
54431;DHT22;40342;52.998;5.862;2023-07-13T06:49:26;17.90;99.90
54431;DHT22;40342;52.998;5.862;2023-07-13T06:51:51;17.80;99.90
54431;DHT22;40342;52.998;5.862;2023-07-13T06:54:17;17.90;99.90
54431;DHT22;40342;52.998;5.862;2023-07-13T06:56:43;17.90;99.90
54431;DHT22;40342;52.998;5.862;2023-07-13T06:59:08;17.90;99.90
54431;DHT22;40342;52.998;5.862;2023-07-13T07:01:34;17.90;99.90
54431;DHT22;40342;52.998;5.862;2023-07-13T07:04:00;17.90;99.90
54431;DHT22;40342;52.998;5.862;2023-07-13T07:06:26;17.90;99.90
54431;DHT22;40342;52.998;5.862;2023-07-13T07:08:52;18.00;99.90
54431;DHT22;40342;52.998;5.862;2023-07-13T07:11:23;18.00;99.90
54431;DHT22;40342;52.998;5.862;2023-07-13T07:13:52;18.10;99.90
54431;DHT22;40342;52.998;5.862;2023-07-13T07:16:19;18.10;99.90
54431;DHT22;40342;52.998;5.862;2023-07-13T07:18:45;18.10;99.90
54431;DHT22;40342;52.998;5.862;2023-07-13T07:21:12;18.00;99.90
54431;DHT22;40342;52.998;5.862;2023-07-13T07:23:38;18.10;99.90
54431;DHT22;40342;52.998;5.862;2023-07-13T07:26:04;18.10;99.90
54431;DHT22;40342;52.998;5.862;2023-07-13T07:28:30;18.10;99.90
54431;DHT22;40342;52.998;5.862;2023-07-13T07:30:57;18.10;99.90
54431;DHT22;40342;52.998;5.862;2023-07-13T07:33:24;18.10;99.90
54431;DHT22;40342;52.998;5.862;2023-07-13T07:35:50;18.20;99.90
54431;DHT22;40342;52.998;5.862;2023-07-13T07:38:15;18.30;99.90
54431;DHT22;40342;52.998;5.862;2023-07-13T07:40:42;18.30;99.90
54431;DHT22;40342;52.998;5.862;2023-07-13T07:43:09;18.40;99.90
54431;DHT22;40342;52.998;5.862;2023-07-13T07:45:35;18.50;99.90
54431;DHT22;40342;52.998;5.862;2023-07-13T07:48:03;18.50;99.90
54431;DHT22;40342;52.998;5.862;2023-07-13T07:50:29;18.40;99.90
54431;DHT22;40342;52.998;5.862;2023-07-13T07:52:55;18.30;99.90
54431;DHT22;40342;52.998;5.862;2023-07-13T07:55:24;18.30;99.90
54431;DHT22;40342;52.998;5.862;2023-07-13T07:57:53;18.30;99.90
54431;DHT22;40342;52.998;5.862;2023-07-13T08:00:19;18.40;99.90
54431;DHT22;40342;52.998;5.862;2023-07-13T08:02:45;18.40;99.90
54431;DHT22;40342;52.998;5.862;2023-07-13T08:05:11;18.50;99.90
54431;DHT22;40342;52.998;5.862;2023-07-13T08:07:38;18.60;99.90
54431;DHT22;40342;52.998;5.862;2023-07-13T08:10:05;18.70;99.90
54431;DHT22;40342;52.998;5.862;2023-07-13T08:12:34;18.80;99.90
54431;DHT22;40342;52.998;5.862;2023-07-13T08:15:00;18.90;99.90
54431;DHT22;40342;52.998;5.862;2023-07-13T08:17:26;19.00;99.90
54431;DHT22;40342;52.998;5.862;2023-07-13T08:19:51;19.00;99.90
54431;DHT22;40342;52.998;5.862;2023-07-13T08:22:17;19.00;99.90
54431;DHT22;40342;52.998;5.862;2023-07-13T08:24:43;19.00;99.90
54431;DHT22;40342;52.998;5.862;2023-07-13T08:27:10;19.00;99.90
54431;DHT22;40342;52.998;5.862;2023-07-13T08:29:37;19.00;99.90
54431;DHT22;40342;52.998;5.862;2023-07-13T08:32:04;19.10;99.90
54431;DHT22;40342;52.998;5.862;2023-07-13T08:34:29;19.20;99.90
54431;DHT22;40342;52.998;5.862;2023-07-13T08:36:55;19.30;99.90
54431;DHT22;40342;52.998;5.862;2023-07-13T08:39:21;19.40;99.90
54431;DHT22;40342;52.998;5.862;2023-07-13T08:41:50;19.50;99.90
54431;DHT22;40342;52.998;5.862;2023-07-13T08:44:30;19.50;99.90
54431;DHT22;40342;52.998;5.862;2023-07-13T08:47:00;19.60;99.90
54431;DHT22;40342;52.998;5.862;2023-07-13T08:49:26;19.70;99.90
54431;DHT22;40342;52.998;5.862;2023-07-13T08:52:03;19.70;99.90
54431;DHT22;40342;52.998;5.862;2023-07-13T08:54:38;19.70;99.90
54431;DHT22;40342;52.998;5.862;2023-07-13T08:57:14;19.60;99.90
54431;DHT22;40342;52.998;5.862;2023-07-13T08:59:40;19.40;99.90
54431;DHT22;40342;52.998;5.862;2023-07-13T09:02:14;19.30;99.90
54431;DHT22;40342;52.998;5.862;2023-07-13T09:04:47;19.20;99.90
54431;DHT22;40342;52.998;5.862;2023-07-13T09:10:16;19.20;99.90
54431;DHT22;40342;52.998;5.862;2023-07-13T09:15:41;19.40;99.90
54431;DHT22;40342;52.998;5.862;2023-07-13T09:18:47;19.60;99.90
54431;DHT22;40342;52.998;5.862;2023-07-13T09:21:31;19.70;99.90
54431;DHT22;40342;52.998;5.862;2023-07-13T09:24:01;19.80;99.90
54431;DHT22;40342;52.998;5.862;2023-07-13T09:26:28;20.00;99.90
54431;DHT22;40342;52.998;5.862;2023-07-13T09:29:06;20.00;99.90
54431;DHT22;40342;52.998;5.862;2023-07-13T09:31:42;20.10;99.90
54431;DHT22;40342;52.998;5.862;2023-07-13T09:34:13;20.20;99.90
54431;DHT22;40342;52.998;5.862;2023-07-13T09:36:38;20.20;99.90
54431;DHT22;40342;52.998;5.862;2023-07-13T09:44:26;20.10;99.90
54431;DHT22;40342;52.998;5.862;2023-07-13T09:46:54;20.10;99.90
54431;DHT22;40342;52.998;5.862;2023-07-13T09:49:42;20.10;99.90
54431;DHT22;40342;52.998;5.862;2023-07-13T09:52:14;20.20;99.90
54431;DHT22;40342;52.998;5.862;2023-07-13T09:54:43;20.30;99.90
54431;DHT22;40342;52.998;5.862;2023-07-13T09:57:15;20.40;99.90
54431;DHT22;40342;52.998;5.862;2023-07-13T09:59:45;20.60;99.90
54431;DHT22;40342;52.998;5.862;2023-07-13T10:02:32;20.80;99.90
54431;DHT22;40342;52.998;5.862;2023-07-13T10:05:13;20.90;99.90
54431;DHT22;40342;52.998;5.862;2023-07-13T10:07:42;20.90;99.90
54431;DHT22;40342;52.998;5.862;2023-07-13T10:10:21;21.00;99.90
54431;DHT22;40342;52.998;5.862;2023-07-13T10:12:48;21.30;99.90
54431;DHT22;40342;52.998;5.862;2023-07-13T10:15:20;21.40;99.90
54431;DHT22;40342;52.998;5.862;2023-07-13T10:17:47;21.50;99.90
54431;DHT22;40342;52.998;5.862;2023-07-13T10:20:14;21.60;99.90
54431;DHT22;40342;52.998;5.862;2023-07-13T10:22:53;21.60;99.90
54431;DHT22;40342;52.998;5.862;2023-07-13T10:25:23;21.60;99.90
54431;DHT22;40342;52.998;5.862;2023-07-13T10:27:54;21.70;99.90
54431;DHT22;40342;52.998;5.862;2023-07-13T10:30:30;21.80;99.90
54431;DHT22;40342;52.998;5.862;2023-07-13T10:33:02;21.90;99.90
54431;DHT22;40342;52.998;5.862;2023-07-13T10:35:29;22.00;99.90
54431;DHT22;40342;52.998;5.862;2023-07-13T10:38:13;22.00;99.90
54431;DHT22;40342;52.998;5.862;2023-07-13T10:43:20;22.00;99.90
54431;DHT22;40342;52.998;5.862;2023-07-13T10:45:49;21.90;99.90
54431;DHT22;40342;52.998;5.862;2023-07-13T10:48:16;21.90;99.90
54431;DHT22;40342;52.998;5.862;2023-07-13T10:50:45;22.00;99.90
54431;DHT22;40342;52.998;5.862;2023-07-13T10:53:21;22.10;99.90
54431;DHT22;40342;52.998;5.862;2023-07-13T11:03:30;21.80;99.90
54431;DHT22;40342;52.998;5.862;2023-07-13T11:18:52;22.00;99.90
54431;DHT22;40342;52.998;5.862;2023-07-13T11:21:20;22.00;99.90
54431;DHT22;40342;52.998;5.862;2023-07-13T11:32:01;22.10;99.90
54431;DHT22;40342;52.998;5.862;2023-07-13T11:34:45;22.10;99.90
54431;DHT22;40342;52.998;5.862;2023-07-13T11:37:12;22.30;99.90
54431;DHT22;40342;52.998;5.862;2023-07-13T11:39:42;22.40;99.90
54431;DHT22;40342;52.998;5.862;2023-07-13T11:42:13;22.40;99.90
54431;DHT22;40342;52.998;5.862;2023-07-13T11:44:48;22.30;99.90
54431;DHT22;40342;52.998;5.862;2023-07-13T11:47:20;22.20;99.90
54431;DHT22;40342;52.998;5.862;2023-07-13T11:49:52;22.10;99.90
54431;DHT22;40342;52.998;5.862;2023-07-13T11:52:23;22.20;99.90
54431;DHT22;40342;52.998;5.862;2023-07-13T11:54:55;22.20;99.90
54431;DHT22;40342;52.998;5.862;2023-07-13T12:00:03;22.20;99.90
54431;DHT22;40342;52.998;5.862;2023-07-13T12:02:42;22.20;99.90
54431;DHT22;40342;52.998;5.862;2023-07-13T12:05:11;22.40;99.90
54431;DHT22;40342;52.998;5.862;2023-07-13T12:07:38;22.50;99.90
54431;DHT22;40342;52.998;5.862;2023-07-13T12:10:18;22.60;99.90
54431;DHT22;40342;52.998;5.862;2023-07-13T12:12:56;22.70;99.90
54431;DHT22;40342;52.998;5.862;2023-07-13T12:15:26;22.60;99.90
54431;DHT22;40342;52.998;5.862;2023-07-13T12:17:54;22.70;99.90
54431;DHT22;40342;52.998;5.862;2023-07-13T12:20:26;22.80;99.90
54431;DHT22;40342;52.998;5.862;2023-07-13T12:22:53;22.80;99.90
54431;DHT22;40342;52.998;5.862;2023-07-13T12:25:19;22.90;99.90
54431;DHT22;40342;52.998;5.862;2023-07-13T12:27:49;23.00;99.90
54431;DHT22;40342;52.998;5.862;2023-07-13T12:30:30;23.00;99.90
54431;DHT22;40342;52.998;5.862;2023-07-13T12:33:11;22.90;99.90
54431;DHT22;40342;52.998;5.862;2023-07-13T12:35:42;22.90;99.90
54431;DHT22;40342;52.998;5.862;2023-07-13T12:38:11;22.90;99.90
54431;DHT22;40342;52.998;5.862;2023-07-13T12:40:37;22.80;99.90
54431;DHT22;40342;52.998;5.862;2023-07-13T12:43:13;22.80;99.90
54431;DHT22;40342;52.998;5.862;2023-07-13T12:45:58;22.60;99.90
54431;DHT22;40342;52.998;5.862;2023-07-13T12:48:24;22.50;99.90
54431;DHT22;40342;52.998;5.862;2023-07-13T12:50:50;22.30;99.90
54431;DHT22;40342;52.998;5.862;2023-07-13T12:53:21;22.20;99.90
54431;DHT22;40342;52.998;5.862;2023-07-13T12:55:56;22.30;99.90
54431;DHT22;40342;52.998;5.862;2023-07-13T12:58:39;22.40;99.90
54431;DHT22;40342;52.998;5.862;2023-07-13T13:01:07;22.50;99.90
54431;DHT22;40342;52.998;5.862;2023-07-13T13:03:38;22.60;99.90
54431;DHT22;40342;52.998;5.862;2023-07-13T13:06:29;22.70;99.90
54431;DHT22;40342;52.998;5.862;2023-07-13T13:08:55;22.70;99.90
54431;DHT22;40342;52.998;5.862;2023-07-13T13:11:23;22.60;99.80
54431;DHT22;40342;52.998;5.862;2023-07-13T13:13:50;22.60;99.90
54431;DHT22;40342;52.998;5.862;2023-07-13T13:16:50;22.70;99.90
54431;DHT22;40342;52.998;5.862;2023-07-13T13:19:25;22.80;99.90
54431;DHT22;40342;52.998;5.862;2023-07-13T13:21:52;22.90;99.90
54431;DHT22;40342;52.998;5.862;2023-07-13T13:24:23;22.90;99.90
54431;DHT22;40342;52.998;5.862;2023-07-13T13:26:51;23.00;99.90
54431;DHT22;40342;52.998;5.862;2023-07-13T13:29:19;23.00;99.90
54431;DHT22;40342;52.998;5.862;2023-07-13T13:31:45;23.10;99.90
54431;DHT22;40342;52.998;5.862;2023-07-13T13:34:14;23.10;99.90
54431;DHT22;40342;52.998;5.862;2023-07-13T13:36:41;23.10;99.60
54431;DHT22;40342;52.998;5.862;2023-07-13T13:39:25;23.10;99.00
54431;DHT22;40342;52.998;5.862;2023-07-13T13:41:53;23.10;99.10
54431;DHT22;40342;52.998;5.862;2023-07-13T13:44:20;23.10;99.60
54431;DHT22;40342;52.998;5.862;2023-07-13T13:46:48;23.10;97.80
54431;DHT22;40342;52.998;5.862;2023-07-13T13:49:16;23.10;98.80
54431;DHT22;40342;52.998;5.862;2023-07-13T13:51:43;23.10;98.30
54431;DHT22;40342;52.998;5.862;2023-07-13T13:54:11;23.10;99.20
54431;DHT22;40342;52.998;5.862;2023-07-13T13:56:37;23.10;99.50
54431;DHT22;40342;52.998;5.862;2023-07-13T13:59:03;23.20;98.50
54431;DHT22;40342;52.998;5.862;2023-07-13T14:01:31;23.10;98.70
54431;DHT22;40342;52.998;5.862;2023-07-13T14:03:56;23.10;97.80
54431;DHT22;40342;52.998;5.862;2023-07-13T14:06:24;23.00;99.00
54431;DHT22;40342;52.998;5.862;2023-07-13T14:08:50;23.10;99.90
54431;DHT22;40342;52.998;5.862;2023-07-13T14:11:18;23.20;99.90
54431;DHT22;40342;52.998;5.862;2023-07-13T14:13:56;23.20;99.30
54431;DHT22;40342;52.998;5.862;2023-07-13T14:16:32;23.20;99.00
54431;DHT22;40342;52.998;5.862;2023-07-13T14:18:59;23.20;98.50
54431;DHT22;40342;52.998;5.862;2023-07-13T14:21:27;23.10;98.60
54431;DHT22;40342;52.998;5.862;2023-07-13T14:23:53;23.10;98.50
54431;DHT22;40342;52.998;5.862;2023-07-13T14:26:23;23.10;98.50
54431;DHT22;40342;52.998;5.862;2023-07-13T14:28:54;23.00;98.30
54431;DHT22;40342;52.998;5.862;2023-07-13T14:31:21;23.00;98.40
54431;DHT22;40342;52.998;5.862;2023-07-13T14:33:47;22.90;98.80
54431;DHT22;40342;52.998;5.862;2023-07-13T14:36:35;23.00;98.70
54431;DHT22;40342;52.998;5.862;2023-07-13T14:39:20;22.80;98.80
54431;DHT22;40342;52.998;5.862;2023-07-13T14:41:51;22.80;99.80
54431;DHT22;40342;52.998;5.862;2023-07-13T14:44:19;22.70;99.60
54431;DHT22;40342;52.998;5.862;2023-07-13T14:46:46;22.70;98.80
54431;DHT22;40342;52.998;5.862;2023-07-13T14:49:40;22.70;99.70
54431;DHT22;40342;52.998;5.862;2023-07-13T14:52:18;22.70;99.00
54431;DHT22;40342;52.998;5.862;2023-07-13T14:54:46;22.60;99.10
54431;DHT22;40342;52.998;5.862;2023-07-13T14:57:17;22.60;99.30
54431;DHT22;40342;52.998;5.862;2023-07-13T14:59:44;22.60;99.00
54431;DHT22;40342;52.998;5.862;2023-07-13T15:02:23;22.60;99.30
54431;DHT22;40342;52.998;5.862;2023-07-13T15:04:51;22.50;99.50
54431;DHT22;40342;52.998;5.862;2023-07-13T15:07:17;22.50;99.90
54431;DHT22;40342;52.998;5.862;2023-07-13T15:09:44;22.50;99.60
54431;DHT22;40342;52.998;5.862;2023-07-13T15:12:10;22.50;99.70
54431;DHT22;40342;52.998;5.862;2023-07-13T15:14:36;22.40;99.50
54431;DHT22;40342;52.998;5.862;2023-07-13T15:17:02;22.30;99.80
54431;DHT22;40342;52.998;5.862;2023-07-13T15:19:28;22.40;99.90
54431;DHT22;40342;52.998;5.862;2023-07-13T15:21:57;22.40;99.90
54431;DHT22;40342;52.998;5.862;2023-07-13T15:24:23;22.30;99.90
54431;DHT22;40342;52.998;5.862;2023-07-13T15:26:49;22.30;99.90
54431;DHT22;40342;52.998;5.862;2023-07-13T15:29:16;22.20;99.90
54431;DHT22;40342;52.998;5.862;2023-07-13T15:31:42;22.20;99.90
54431;DHT22;40342;52.998;5.862;2023-07-13T15:34:13;22.20;99.80
54431;DHT22;40342;52.998;5.862;2023-07-13T15:36:39;22.20;99.60
54431;DHT22;40342;52.998;5.862;2023-07-13T15:39:06;22.10;99.80
54431;DHT22;40342;52.998;5.862;2023-07-13T15:41:32;22.10;99.80
54431;DHT22;40342;52.998;5.862;2023-07-13T15:43:59;22.00;99.50
54431;DHT22;40342;52.998;5.862;2023-07-13T15:46:27;22.00;99.90
54431;DHT22;40342;52.998;5.862;2023-07-13T15:48:54;22.00;99.90
54431;DHT22;40342;52.998;5.862;2023-07-13T15:51:28;22.00;99.90
54431;DHT22;40342;52.998;5.862;2023-07-13T15:53:59;22.00;99.90
54431;DHT22;40342;52.998;5.862;2023-07-13T15:56:29;21.90;99.90
54431;DHT22;40342;52.998;5.862;2023-07-13T15:58:55;22.00;99.90
54431;DHT22;40342;52.998;5.862;2023-07-13T16:01:22;21.90;99.90
54431;DHT22;40342;52.998;5.862;2023-07-13T16:03:48;21.90;99.90
54431;DHT22;40342;52.998;5.862;2023-07-13T16:06:27;21.90;99.90
54431;DHT22;40342;52.998;5.862;2023-07-13T16:08:54;21.80;99.90
54431;DHT22;40342;52.998;5.862;2023-07-13T16:11:24;21.70;99.90
54431;DHT22;40342;52.998;5.862;2023-07-13T16:13:52;21.50;99.90
54431;DHT22;40342;52.998;5.862;2023-07-13T16:16:22;21.40;99.90
54431;DHT22;40342;52.998;5.862;2023-07-13T16:18:53;21.50;99.90
54431;DHT22;40342;52.998;5.862;2023-07-13T16:21:22;21.60;99.90
54431;DHT22;40342;52.998;5.862;2023-07-13T16:23:49;21.50;99.90
54431;DHT22;40342;52.998;5.862;2023-07-13T16:26:36;21.60;99.90